createdAt,value
2018-04-14T00:00:55.493Z,8.40
2018-04-14T00:02:00.409Z,7.80
2018-04-14T00:03:04.615Z,8.00
2018-04-14T00:04:08.655Z,7.18
2018-04-14T00:05:12.901Z,8.27
2018-04-14T00:06:17.684Z,7.57
2018-04-14T00:07:22.433Z,8.68
2018-04-14T00:08:27.333Z,8.68
2018-04-14T00:09:31.296Z,8.65
2018-04-14T00:10:35.224Z,8.82
2018-04-14T00:11:39.112Z,8.38
2018-04-14T00:12:42.968Z,8.20
2018-04-14T00:13:46.825Z,8.20
2018-04-14T00:14:50.739Z,8.02
2018-04-14T00:15:54.724Z,8.00
2018-04-14T00:16:58.888Z,8.10
2018-04-14T00:18:03.977Z,8.70
2018-04-14T00:19:08.058Z,8.43
2018-04-14T00:20:13.156Z,8.07
2018-04-14T00:21:17.180Z,8.27
2018-04-14T00:22:21.225Z,8.30
2018-04-14T00:23:25.424Z,9.00
2018-04-14T00:24:29.517Z,9.68
2018-04-14T00:25:33.532Z,11.07
2018-04-14T00:26:37.594Z,10.18
2018-04-14T00:27:42.880Z,9.23
2018-04-14T00:28:47.646Z,9.23
2018-04-14T00:29:52.361Z,9.40
2018-04-14T00:30:57.023Z,9.02
2018-04-14T00:32:01.672Z,9.95
2018-04-14T00:33:05.585Z,9.88
2018-04-14T00:34:10.591Z,10.27
2018-04-14T00:35:14.465Z,10.27
2018-04-14T00:36:18.353Z,10.52
2018-04-14T00:37:22.604Z,10.40
2018-04-14T00:38:27.218Z,9.47
2018-04-14T00:39:31.354Z,10.45
2018-04-14T00:40:35.288Z,9.18
2018-04-14T00:41:39.529Z,22.02
2018-04-14T00:42:44.312Z,9.48
2018-04-14T00:43:48.222Z,8.48
2018-04-14T00:44:52.126Z,8.52
2018-04-14T00:45:56.035Z,9.73
2018-04-14T00:47:00.311Z,9.30
2018-04-14T00:48:04.684Z,9.35
2018-04-14T00:49:08.969Z,10.30
2018-04-14T00:50:13.657Z,10.63
2018-04-14T00:51:17.625Z,8.95
2018-04-14T00:52:21.563Z,9.73
2018-04-14T00:54:02.617Z,9.70
2018-04-14T00:55:06.729Z,10.02
2018-04-14T00:56:10.901Z,10.50
2018-04-14T00:57:15.278Z,9.93
2018-04-14T00:58:19.384Z,9.30
2018-04-14T00:59:23.377Z,10.10
2018-04-14T01:00:27.381Z,9.90
2018-04-14T01:01:31.386Z,10.30
2018-04-14T01:02:35.687Z,9.85
2018-04-14T01:03:39.789Z,9.60
2018-04-14T01:04:43.852Z,10.48
2018-04-14T01:05:48.511Z,11.30
2018-04-14T01:06:52.421Z,10.57
2018-04-14T01:07:56.262Z,11.45
2018-04-14T01:09:00.982Z,14.00
2018-04-14T01:10:04.933Z,11.60
2018-04-14T01:11:08.881Z,11.63
2018-04-14T01:12:12.781Z,14.50
2018-04-14T01:13:16.644Z,12.13
2018-04-14T01:14:20.588Z,9.75
2018-04-14T01:15:25.229Z,12.23
2018-04-14T01:16:29.124Z,9.10
2018-04-14T01:17:33.037Z,10.38
2018-04-14T01:18:36.931Z,9.55
2018-04-14T01:19:40.928Z,11.85
2018-04-14T01:20:44.888Z,13.90
2018-04-14T01:21:49.019Z,11.23
2018-04-14T01:22:52.888Z,11.20
2018-04-14T01:23:56.760Z,8.70
2018-04-14T01:25:01.519Z,8.98
2018-04-14T01:26:06.167Z,9.85
2018-04-14T01:27:10.208Z,10.02
2018-04-14T01:28:14.353Z,8.82
2018-04-14T01:29:18.206Z,9.30
2018-04-14T01:30:22.156Z,10.10
2018-04-14T01:31:26.030Z,9.85
2018-04-14T01:32:30.714Z,12.23
2018-04-14T01:33:34.715Z,11.38
2018-04-14T01:34:38.723Z,11.20
2018-04-14T01:35:42.743Z,12.20
2018-04-14T01:36:47.541Z,12.52
2018-04-14T01:37:51.567Z,12.27
2018-04-14T01:38:55.611Z,12.15
2018-04-14T01:40:00.298Z,11.73
2018-04-14T01:41:05.407Z,12.55
2018-04-14T01:42:10.250Z,12.10
2018-04-14T01:43:14.160Z,11.55
2018-04-14T01:44:18.099Z,12.75
2018-04-14T01:45:21.976Z,11.98
2018-04-14T01:46:25.844Z,11.23
2018-04-14T01:47:29.725Z,11.00
2018-04-14T01:48:33.705Z,11.40
2018-04-14T01:49:37.702Z,10.65
2018-04-14T01:50:43.748Z,10.30
2018-04-14T01:51:48.568Z,10.20
2018-04-14T01:52:53.386Z,9.88
2018-04-14T01:53:58.168Z,10.38
2018-04-14T01:55:03.037Z,9.73
2018-04-14T01:56:07.069Z,9.13
2018-04-14T01:57:11.121Z,9.73
2018-04-14T01:59:34.657Z,10.10
2018-04-14T02:00:38.856Z,9.60
2018-04-14T02:01:42.845Z,9.20
2018-04-14T02:02:46.700Z,9.80
2018-04-14T02:03:51.305Z,9.60
2018-04-14T02:04:55.926Z,9.27
2018-04-14T02:06:01.296Z,9.98
2018-04-14T02:07:05.143Z,8.95
2018-04-14T02:08:09.852Z,9.32
2018-04-14T02:09:13.691Z,10.13
2018-04-14T02:10:17.601Z,9.70
2018-04-14T02:11:21.516Z,9.32
2018-04-14T02:12:25.552Z,10.63
2018-04-14T02:13:30.285Z,10.68
2018-04-14T02:14:34.148Z,15.32
2018-04-14T02:15:38.052Z,12.37
2018-04-14T02:16:42.019Z,12.40
2018-04-14T02:17:45.853Z,10.98
2018-04-14T02:18:49.889Z,10.07
2018-04-14T02:19:53.770Z,9.23
2018-04-14T02:20:57.701Z,9.63
2018-04-14T02:22:02.700Z,10.63
2018-04-14T02:23:06.565Z,9.32
2018-04-14T02:24:10.505Z,11.15
2018-04-14T02:25:15.917Z,9.43
2018-04-14T02:26:20.575Z,10.15
2018-04-14T02:27:24.434Z,9.50
2018-04-14T02:28:28.313Z,10.48
2018-04-14T02:29:33.037Z,10.38
2018-04-14T02:30:37.645Z,10.30
2018-04-14T02:31:42.272Z,9.93
2018-04-14T02:32:46.305Z,10.63
2018-04-14T02:33:50.147Z,9.90
2018-04-14T02:34:54.110Z,10.43
2018-04-14T02:35:57.944Z,10.85
2018-04-14T02:37:03.450Z,10.32
2018-04-14T02:38:07.352Z,10.32
2018-04-14T02:39:11.209Z,9.63
2018-04-14T02:40:15.071Z,10.40
2018-04-14T02:41:19.678Z,10.82
2018-04-14T02:42:23.549Z,9.38
2018-04-14T02:43:27.377Z,10.18
2018-04-14T02:44:31.964Z,10.30
2018-04-14T02:45:35.876Z,8.63
2018-04-14T02:46:39.724Z,10.10
2018-04-14T02:47:43.628Z,9.32
2018-04-14T02:48:47.476Z,9.30
2018-04-14T02:49:52.085Z,9.40
2018-04-14T02:50:55.976Z,8.80
2018-04-14T02:52:00.310Z,8.65
2018-04-14T02:53:04.281Z,9.15
2018-04-14T02:54:08.125Z,10.43
2018-04-14T02:55:11.982Z,8.45
2018-04-14T02:56:16.095Z,8.88
2018-04-14T02:57:19.953Z,8.82
2018-04-14T02:58:24.388Z,8.45
2018-04-14T02:59:28.427Z,8.32
2018-04-14T03:00:32.453Z,8.30
2018-04-14T03:01:36.506Z,7.65
2018-04-14T03:02:41.281Z,8.27
2018-04-14T03:03:45.305Z,8.27
2018-04-14T03:04:50.087Z,8.30
2018-04-14T03:05:54.089Z,8.70
2018-04-14T03:06:58.267Z,9.38
2018-04-14T03:08:03.275Z,8.90
2018-04-14T03:09:08.019Z,7.70
2018-04-14T03:10:11.923Z,8.90
2018-04-14T03:11:15.849Z,8.80
2018-04-14T03:12:19.889Z,9.15
2018-04-14T03:13:24.606Z,8.70
2018-04-14T03:14:29.252Z,8.45
2018-04-14T03:15:33.165Z,8.90
2018-04-14T03:16:37.316Z,9.30
2018-04-14T03:17:41.971Z,9.50
2018-04-14T03:18:45.917Z,9.18
2018-04-14T03:19:49.762Z,9.15
2018-04-14T03:20:53.626Z,9.47
2018-04-14T03:21:58.239Z,9.50
2018-04-14T03:23:18.923Z,9.38
2018-04-14T03:24:23.550Z,10.55
2018-04-14T03:25:28.272Z,11.40
2018-04-14T03:26:33.424Z,11.40
2018-04-14T03:27:37.441Z,12.55
2018-04-14T03:28:41.455Z,11.50
2018-04-14T03:29:45.629Z,10.98
2018-04-14T03:30:49.696Z,11.93
2018-04-14T03:31:54.464Z,12.13
2018-04-14T03:32:58.512Z,10.65
2018-04-14T03:34:04.151Z,10.83
2018-04-14T03:35:08.923Z,12.00
2018-04-14T03:36:12.907Z,12.02
2018-04-14T03:37:16.756Z,11.90
2018-04-14T03:38:20.583Z,10.90
2018-04-14T03:39:24.443Z,9.85
2018-04-14T03:40:28.338Z,10.85
2018-04-14T03:41:32.161Z,11.50
2018-04-14T03:42:36.786Z,11.50
2018-04-14T03:43:40.649Z,11.17
2018-04-14T03:44:44.512Z,11.52
2018-04-14T03:45:48.367Z,12.77
2018-04-14T03:46:52.210Z,11.18
2018-04-14T03:47:56.058Z,10.73
2018-04-14T03:49:00.902Z,10.52
2018-04-14T03:50:04.900Z,11.77
2018-04-14T03:51:08.751Z,10.13
2018-04-14T03:52:12.717Z,8.10
2018-04-14T03:53:16.557Z,9.77
2018-04-14T03:54:21.323Z,15.15
2018-04-14T03:55:25.172Z,12.77
2018-04-14T03:56:29.792Z,18.60
2018-04-14T03:57:34.438Z,12.07
2018-04-14T03:58:38.379Z,13.60
2018-04-14T03:59:42.250Z,10.07
2018-04-14T04:00:46.132Z,11.27
2018-04-14T04:01:50.312Z,15.77
2018-04-14T04:02:54.237Z,14.57
2018-04-14T04:03:58.114Z,15.15
2018-04-14T04:05:02.978Z,12.18
2018-04-14T04:06:06.814Z,11.45
2018-04-14T04:07:10.688Z,11.17
2018-04-14T04:08:14.550Z,12.80
2018-04-14T04:09:18.435Z,10.02
2018-04-14T04:10:22.412Z,10.27
2018-04-14T04:11:26.274Z,10.07
2018-04-14T04:12:30.093Z,9.63
2018-04-14T04:13:34.708Z,11.93
2018-04-14T04:14:39.363Z,10.88
2018-04-14T04:15:43.229Z,9.98
2018-04-14T04:16:47.112Z,9.63
2018-04-14T04:17:51.964Z,9.70
2018-04-14T04:19:06.923Z,8.80
2018-04-14T04:20:25.485Z,9.25
2018-04-14T04:23:44.995Z,8.40
2018-04-14T04:25:04.448Z,8.93
2018-04-14T04:26:08.343Z,9.25
2018-04-14T04:27:12.980Z,8.50
2018-04-14T04:28:22.789Z,8.70
2018-04-14T04:29:31.489Z,9.30
2018-04-14T04:30:39.569Z,8.82
2018-04-14T04:31:45.330Z,8.40
2018-04-14T04:32:51.224Z,9.00
2018-04-14T04:33:57.905Z,8.60
2018-04-14T04:35:06.003Z,8.48
2018-04-14T04:36:10.907Z,8.25
2018-04-14T04:37:17.255Z,8.80
2018-04-14T04:38:23.445Z,8.63
2018-04-14T04:39:28.968Z,8.82
2018-04-14T04:40:35.290Z,8.45
2018-04-14T04:41:39.928Z,8.70
2018-04-14T04:42:44.595Z,8.50
2018-04-14T04:43:49.037Z,8.95
2018-04-14T04:44:54.199Z,9.00
2018-04-14T04:46:02.897Z,8.80
2018-04-14T04:47:07.584Z,8.70
2018-04-14T04:48:12.989Z,8.35
2018-04-14T04:49:17.132Z,9.07
2018-04-14T04:50:24.906Z,8.88
2018-04-14T04:51:30.918Z,8.70
2018-04-14T04:52:36.540Z,8.68
2018-04-14T04:53:47.161Z,9.00
2018-04-14T04:54:54.821Z,9.20
2018-04-14T04:56:04.851Z,9.55
2018-04-14T04:57:11.467Z,9.43
2018-04-14T04:58:16.682Z,9.07
2018-04-14T04:59:22.931Z,9.38
2018-04-14T05:00:29.797Z,9.30
2018-04-14T05:01:35.651Z,9.48
2018-04-14T05:02:39.974Z,9.48
2018-04-14T05:03:44.394Z,9.70
2018-04-14T05:04:49.218Z,9.05
2018-04-14T05:05:53.723Z,9.02
2018-04-14T05:06:58.020Z,8.80
2018-04-14T05:08:03.439Z,9.82
2018-04-14T05:09:08.720Z,9.90
2018-04-14T05:10:15.611Z,9.60
2018-04-14T05:11:22.872Z,9.45
2018-04-14T05:12:33.739Z,9.30
2018-04-14T05:13:39.367Z,8.93
2018-04-14T05:14:47.707Z,9.82
2018-04-14T05:15:54.413Z,9.43
2018-04-14T05:18:07.047Z,9.60
2018-04-14T05:19:13.930Z,9.73
2018-04-14T05:20:20.796Z,9.77
2018-04-14T05:21:27.696Z,8.65
2018-04-14T05:22:32.381Z,8.35
2018-04-14T05:23:36.919Z,9.18
2018-04-14T05:24:42.741Z,8.38
2018-04-14T05:25:50.260Z,8.40
2018-04-14T05:26:55.152Z,7.18
2018-04-14T05:27:59.078Z,7.43
2018-04-14T05:29:04.952Z,7.80
2018-04-14T05:30:10.553Z,7.55
2018-04-14T05:31:16.015Z,7.20
2018-04-14T05:32:20.720Z,7.70
2018-04-14T05:33:26.320Z,7.25
2018-04-14T05:34:31.178Z,6.30
2018-04-14T05:35:35.538Z,7.17
2018-04-14T05:36:42.078Z,7.28
2018-04-14T05:37:47.317Z,7.90
2018-04-14T05:38:53.513Z,8.00
2018-04-14T05:39:57.572Z,7.53
2018-04-14T05:41:02.822Z,6.90
2018-04-14T05:42:06.823Z,7.50
2018-04-14T05:43:10.809Z,6.70
2018-04-14T05:44:14.808Z,7.32
2018-04-14T05:45:18.904Z,6.60
2018-04-14T05:46:24.037Z,7.62
2018-04-14T05:47:30.380Z,7.82
2018-04-14T05:48:34.546Z,7.43
2018-04-14T05:49:38.859Z,6.50
2018-04-14T05:50:44.169Z,8.20
2018-04-14T05:51:48.099Z,6.53
2018-04-14T05:52:52.886Z,7.65
2018-04-14T05:53:56.765Z,7.37
2018-04-14T05:55:02.049Z,7.32
2018-04-14T05:56:06.927Z,7.35
2018-04-14T05:57:10.943Z,7.10
2018-04-14T05:58:14.985Z,7.65
2018-04-14T05:59:19.048Z,7.60
2018-04-14T06:00:23.391Z,8.77
2018-04-14T06:01:27.775Z,8.43
2018-04-14T06:02:33.479Z,9.32
2018-04-14T06:03:37.512Z,9.52
2018-04-14T06:04:42.343Z,8.70
2018-04-14T06:05:47.142Z,7.82
2018-04-14T06:06:51.536Z,7.50
2018-04-14T06:07:55.556Z,7.72
2018-04-14T06:09:01.099Z,7.60
2018-04-14T06:10:05.989Z,7.12
2018-04-14T06:11:09.838Z,7.20
2018-04-14T06:12:13.962Z,6.62
2018-04-14T06:13:17.895Z,7.12
2018-04-14T06:14:21.811Z,6.90
2018-04-14T06:15:28.354Z,6.60
2018-04-14T06:16:32.209Z,7.20
2018-04-14T06:17:36.042Z,7.37
2018-04-14T06:18:40.214Z,6.93
2018-04-14T06:19:44.094Z,7.90
2018-04-14T06:20:48.023Z,6.05
2018-04-14T06:21:51.888Z,6.45
2018-04-14T06:22:55.765Z,6.97
2018-04-14T06:24:01.529Z,6.75
2018-04-14T06:25:05.603Z,6.57
2018-04-14T06:26:10.280Z,6.25
2018-04-14T06:27:14.129Z,12.20
2018-04-14T06:28:18.110Z,10.02
2018-04-14T06:29:22.220Z,8.53
2018-04-14T06:30:27.595Z,6.70
2018-04-14T06:31:31.699Z,7.12
2018-04-14T06:32:35.750Z,7.28
2018-04-14T06:33:40.642Z,6.70
2018-04-14T06:34:45.145Z,6.90
2018-04-14T06:35:49.962Z,12.48
2018-04-14T06:36:54.324Z,14.98
2018-04-14T06:37:59.151Z,9.60
2018-04-14T06:39:03.339Z,7.43
2018-04-14T06:40:08.187Z,7.40
2018-04-14T06:41:12.242Z,7.55
2018-04-14T06:42:16.323Z,7.78
2018-04-14T06:43:20.391Z,6.72
2018-04-14T06:44:24.337Z,7.20
2018-04-14T06:45:28.311Z,6.90
2018-04-14T06:46:32.227Z,7.03
2018-04-14T06:47:36.363Z,6.70
2018-04-14T06:48:40.545Z,7.18
2018-04-14T06:49:45.297Z,7.40
2018-04-14T06:50:49.272Z,7.37
2018-04-14T06:51:53.977Z,7.93
2018-04-14T06:52:57.874Z,7.60
2018-04-14T06:54:01.770Z,7.40
2018-04-14T06:55:06.976Z,7.93
2018-04-14T06:56:10.890Z,7.15
2018-04-14T06:57:14.775Z,7.72
2018-04-14T06:58:18.723Z,6.60
2018-04-14T06:59:22.792Z,6.68
2018-04-14T07:00:26.723Z,7.07
2018-04-14T07:01:30.553Z,6.57
2018-04-14T07:02:34.437Z,7.45
2018-04-14T07:03:38.372Z,6.87
2018-04-14T07:04:54.921Z,6.68
2018-04-14T07:05:58.876Z,9.48
2018-04-14T07:07:03.090Z,22.62
2018-04-14T07:08:07.952Z,10.13
2018-04-14T07:09:11.858Z,7.70
2018-04-14T07:10:15.849Z,7.40
2018-04-14T07:11:19.733Z,7.87
2018-04-14T07:12:23.591Z,7.70
2018-04-14T07:13:27.772Z,8.63
2018-04-14T07:14:31.946Z,9.80
2018-04-14T07:15:35.905Z,17.40
2018-04-14T07:16:40.605Z,11.45
2018-04-14T07:17:44.477Z,9.23
2018-04-14T07:18:48.459Z,12.57
2018-04-14T07:19:52.476Z,10.45
2018-04-14T07:20:56.553Z,10.05
2018-04-14T07:22:00.663Z,12.73
2018-04-14T07:23:04.927Z,16.50
2018-04-14T07:24:09.719Z,11.82
2018-04-14T07:25:14.329Z,11.23
2018-04-14T07:26:18.509Z,12.50
2018-04-14T07:27:22.557Z,12.18
2018-04-14T07:28:27.429Z,12.05
2018-04-14T07:29:31.485Z,11.48
2018-04-14T07:30:36.288Z,12.57
2018-04-14T07:31:40.432Z,17.87
2018-04-14T07:32:44.328Z,13.73
2018-04-14T07:33:48.237Z,12.55
2018-04-14T07:34:52.139Z,12.75
2018-04-14T07:35:56.262Z,13.70
2018-04-14T07:37:00.605Z,15.20
2018-04-14T07:38:04.575Z,19.70
2018-04-14T07:39:08.713Z,23.73
2018-04-14T07:40:13.416Z,22.67
2018-04-14T07:41:17.388Z,18.73
2018-04-14T07:42:21.805Z,18.98
2018-04-14T07:43:26.093Z,21.67
2018-04-14T07:44:29.956Z,19.85
2018-04-14T07:45:33.812Z,21.43
2018-04-14T07:46:37.848Z,24.27
2018-04-14T07:47:43.446Z,26.73
2018-04-14T07:48:47.504Z,27.37
2018-04-14T07:49:51.693Z,29.00
2018-04-14T07:50:55.565Z,30.15
2018-04-14T07:51:59.439Z,29.50
2018-04-14T07:53:03.337Z,31.33
2018-04-14T07:54:07.241Z,34.00
2018-04-14T07:55:11.870Z,32.20
2018-04-14T07:56:15.749Z,32.40
2018-04-14T07:57:19.673Z,31.65
2018-04-14T07:58:23.649Z,33.22
2018-04-14T07:59:27.536Z,33.88
2018-04-14T08:00:31.487Z,42.15
2018-04-14T08:01:35.617Z,43.30
2018-04-14T08:02:39.529Z,43.43
2018-04-14T08:03:43.483Z,47.35
2018-04-14T08:04:48.117Z,44.75
2018-04-14T08:05:52.006Z,46.13
2018-04-14T08:06:56.039Z,46.95
2018-04-14T08:08:00.173Z,48.85
2018-04-14T08:09:04.409Z,46.80
2018-04-14T08:10:09.096Z,46.15
2018-04-14T08:11:12.988Z,45.00
2018-04-14T08:12:16.904Z,49.10
2018-04-14T08:13:21.528Z,48.10
2018-04-14T08:14:26.176Z,52.13
2018-04-14T08:15:30.057Z,48.20
2018-04-14T08:16:34.771Z,49.15
2018-04-14T08:17:38.747Z,51.15
2018-04-14T08:18:43.354Z,49.42
2018-04-14T08:19:47.284Z,49.37
2018-04-14T08:20:51.156Z,48.70
2018-04-14T08:21:55.800Z,49.88
2018-04-14T08:23:02.222Z,50.13
2018-04-14T08:24:06.898Z,49.03
2018-04-14T08:25:10.870Z,50.30
2018-04-14T08:26:14.747Z,51.00
2018-04-14T08:27:19.384Z,53.75
2018-04-14T08:28:23.518Z,49.50
2018-04-14T08:29:27.382Z,48.80
2018-04-14T08:30:31.247Z,50.40
2018-04-14T08:31:36.464Z,49.80
2018-04-14T08:32:40.499Z,50.22
2018-04-14T08:33:44.698Z,50.40
2018-04-14T08:34:48.760Z,48.07
2018-04-14T08:35:53.127Z,45.88
2018-04-14T08:36:57.144Z,46.97
2018-04-14T08:38:01.632Z,46.67
2018-04-14T08:39:06.362Z,45.78
2018-04-14T08:40:10.441Z,45.03
2018-04-14T08:41:14.501Z,56.45
2018-04-14T08:42:18.414Z,64.28
2018-04-14T08:43:23.053Z,61.05
2018-04-14T08:44:27.014Z,53.85
2018-04-14T08:45:31.642Z,55.15
2018-04-14T08:46:38.917Z,60.30
2018-04-14T08:47:42.832Z,59.58
2018-04-14T08:48:46.765Z,64.82
2018-04-14T08:49:51.069Z,75.65
2018-04-14T08:50:55.285Z,53.45
2018-04-14T08:51:59.339Z,53.87
2018-04-14T08:53:04.182Z,60.12
2018-04-14T08:54:08.294Z,70.85
2018-04-14T08:55:12.451Z,74.90
2018-04-14T08:56:16.820Z,61.70
2018-04-14T08:57:20.881Z,55.95
2018-04-14T08:58:24.920Z,49.50
2018-04-14T08:59:28.967Z,54.92
2018-04-14T09:00:34.014Z,50.42
2018-04-14T09:01:37.899Z,59.80
2018-04-14T09:02:42.624Z,53.72
2018-04-14T09:03:46.697Z,58.00
2018-04-14T09:04:51.453Z,49.40
2018-04-14T09:05:56.137Z,52.17
2018-04-14T09:07:01.162Z,50.22
2018-04-14T09:08:06.510Z,55.60
2018-04-14T09:09:10.585Z,66.45
2018-04-14T09:10:15.576Z,59.33
2018-04-14T09:11:27.064Z,68.23
2018-04-14T09:12:43.038Z,61.80
2018-04-14T09:13:47.373Z,59.40
2018-04-14T09:14:52.180Z,93.70
2018-04-14T09:15:56.377Z,63.58
2018-04-14T09:17:00.470Z,58.15
2018-04-14T09:18:04.513Z,66.85
2018-04-14T09:19:09.650Z,78.62
2018-04-14T09:20:14.444Z,60.50
2018-04-14T09:21:18.362Z,56.42
2018-04-14T09:22:23.133Z,61.57
2018-04-14T09:23:26.982Z,63.85
2018-04-14T09:24:30.881Z,56.78
2018-04-14T09:25:34.930Z,71.50
2018-04-14T09:26:38.853Z,66.25
2018-04-14T09:27:43.556Z,61.20
2018-04-14T09:28:47.417Z,58.65
2018-04-14T09:29:51.308Z,56.65
2018-04-14T09:30:55.588Z,58.35
2018-04-14T09:32:00.706Z,61.08
2018-04-14T09:33:05.585Z,55.90
2018-04-14T09:34:09.681Z,54.10
2018-04-14T09:35:13.796Z,56.53
2018-04-14T09:36:18.072Z,54.58
2018-04-14T09:37:22.428Z,54.63
2018-04-14T09:38:26.999Z,56.53
2018-04-14T09:39:31.839Z,56.00
2018-04-14T09:40:35.869Z,55.47
2018-04-14T09:41:39.794Z,57.30
2018-04-14T09:42:43.698Z,56.07
2018-04-14T09:43:47.593Z,54.03
2018-04-14T09:44:51.766Z,57.35
2018-04-14T09:45:55.672Z,59.40
2018-04-14T09:47:00.350Z,57.75
2018-04-14T09:48:04.216Z,59.97
2018-04-14T09:49:08.216Z,57.67
2018-04-14T09:50:12.197Z,56.47
2018-04-14T09:51:16.906Z,55.10
2018-04-14T09:52:21.505Z,54.78
2018-04-14T09:53:25.373Z,54.55
2018-04-14T09:54:29.861Z,57.25
2018-04-14T09:55:35.201Z,55.63
2018-04-14T09:56:41.149Z,57.35
2018-04-14T09:57:45.218Z,55.95
2018-04-14T09:58:50.215Z,55.50
2018-04-14T09:59:54.473Z,56.90
2018-04-14T10:01:02.026Z,55.15
2018-04-14T10:02:11.233Z,57.80
2018-04-14T10:03:21.133Z,57.15
2018-04-14T10:04:25.095Z,57.33
2018-04-14T10:05:28.986Z,59.78
2018-04-14T10:06:34.615Z,58.23
2018-04-14T10:07:40.860Z,57.85
2018-04-14T10:08:45.669Z,59.97
2018-04-14T10:09:49.560Z,55.83
2018-04-14T10:10:53.425Z,58.60
2018-04-14T10:11:57.309Z,56.97
2018-04-14T10:13:01.938Z,56.72
2018-04-14T10:14:06.023Z,56.03
2018-04-14T10:15:09.955Z,56.45
2018-04-14T10:16:16.352Z,55.47
2018-04-14T10:17:23.874Z,56.70
2018-04-14T10:18:28.464Z,55.83
2018-04-14T10:19:33.266Z,55.33
2018-04-14T10:20:38.127Z,57.13
2018-04-14T10:21:41.992Z,56.42
2018-04-14T10:22:47.603Z,58.10
2018-04-14T10:23:52.763Z,55.35
2018-04-14T10:24:57.154Z,52.15
2018-04-14T10:26:01.768Z,55.78
2018-04-14T10:27:06.526Z,55.00
2018-04-14T10:28:10.417Z,58.50
2018-04-14T10:29:14.311Z,55.70
2018-04-14T10:30:18.611Z,54.65
2018-04-14T10:31:22.520Z,57.53
2018-04-14T10:32:26.441Z,55.72
2018-04-14T10:34:48.980Z,56.53
2018-04-14T10:35:52.954Z,55.55
2018-04-14T10:36:56.828Z,56.83
2018-04-14T10:38:00.750Z,58.17
2018-04-14T10:39:06.896Z,63.08
2018-04-14T10:40:12.595Z,63.83
2018-04-14T10:41:17.047Z,63.58
2018-04-14T10:42:20.956Z,62.00
2018-04-14T10:43:25.090Z,64.62
2018-04-14T10:44:29.091Z,97.50
2018-04-14T10:45:33.112Z,63.55
2018-04-14T10:46:37.836Z,61.75
2018-04-14T10:47:42.781Z,59.75
2018-04-14T10:48:46.641Z,58.45
2018-04-14T10:49:51.285Z,59.60
2018-04-14T10:50:55.203Z,59.40
2018-04-14T10:51:59.468Z,58.40
2018-04-14T10:53:04.222Z,54.03
2018-04-14T10:54:08.394Z,54.08
2018-04-14T10:55:12.401Z,55.95
2018-04-14T10:56:17.597Z,54.33
2018-04-14T10:57:23.624Z,53.08
2018-04-14T10:58:28.690Z,54.92
2018-04-14T10:59:33.645Z,54.17
2018-04-14T11:00:37.595Z,54.25
2018-04-14T11:01:42.291Z,55.92
2018-04-14T11:02:46.189Z,56.08
2018-04-14T11:03:50.290Z,52.58
2018-04-14T11:04:54.229Z,56.00
2018-04-14T11:05:58.425Z,56.20
2018-04-14T11:07:03.073Z,56.55
2018-04-14T11:08:07.511Z,53.78
2018-04-14T11:09:11.440Z,52.00
2018-04-14T11:10:16.174Z,52.08
2018-04-14T11:11:21.256Z,50.78
2018-04-14T11:12:25.200Z,50.00
2018-04-14T11:13:29.304Z,52.72
2018-04-14T11:14:34.505Z,53.58
2018-04-14T11:15:38.383Z,51.78
2018-04-14T11:16:42.324Z,55.25
2018-04-14T11:17:46.539Z,55.30
2018-04-14T11:18:50.430Z,56.47
2018-04-14T11:19:54.333Z,53.85
2018-04-14T11:20:58.199Z,52.00
2018-04-14T11:22:03.650Z,51.40
2018-04-14T11:23:08.558Z,51.95
2018-04-14T11:24:13.948Z,52.53
2018-04-14T11:25:17.870Z,53.85
2018-04-14T11:26:21.791Z,50.42
2018-04-14T11:27:26.455Z,51.75
2018-04-14T11:28:30.340Z,50.58
2018-04-14T11:29:34.572Z,51.85
2018-04-14T11:30:38.537Z,49.45
2018-04-14T11:31:42.452Z,48.97
2018-04-14T11:32:46.313Z,51.63
2018-04-14T11:33:50.300Z,60.47
2018-04-14T11:34:54.970Z,58.10
2018-04-14T11:35:59.173Z,64.53
2018-04-14T11:37:03.734Z,52.30
2018-04-14T11:38:08.383Z,51.28
2018-04-14T11:39:12.262Z,49.83
2018-04-14T11:40:16.131Z,47.40
2018-04-14T11:41:20.779Z,50.95
2018-04-14T11:42:24.903Z,48.75
2018-04-14T11:43:28.808Z,47.72
2018-04-14T11:44:33.073Z,48.97
2018-04-14T11:45:37.004Z,47.70
2018-04-14T11:46:40.877Z,48.00
2018-04-14T11:47:45.165Z,51.55
2018-04-14T11:48:49.825Z,49.00
2018-04-14T11:49:53.774Z,54.75
2018-04-14T11:50:58.582Z,53.20
2018-04-14T11:52:02.500Z,53.45
2018-04-14T11:53:06.386Z,55.75
2018-04-14T11:54:11.281Z,56.35
2018-04-14T11:55:15.190Z,56.60
2018-04-14T11:56:19.130Z,57.58
2018-04-14T11:57:24.164Z,55.00
2018-04-14T11:58:28.057Z,61.00
2018-04-14T11:59:32.024Z,54.97
2018-04-14T12:00:36.158Z,47.37
2018-04-14T12:01:40.041Z,46.83
2018-04-14T12:02:44.767Z,48.65
2018-04-14T12:03:48.640Z,51.72
2018-04-14T12:04:53.297Z,53.35
2018-04-14T12:05:57.431Z,55.83
2018-04-14T12:07:01.353Z,56.60
2018-04-14T12:08:06.039Z,56.28
2018-04-14T12:09:10.024Z,56.03
2018-04-14T12:10:13.922Z,55.17
2018-04-14T12:11:17.845Z,56.13
2018-04-14T12:12:22.138Z,57.17
2018-04-14T12:13:26.443Z,53.92
2018-04-14T12:14:30.423Z,54.08
2018-04-14T12:15:34.394Z,53.35
2018-04-14T12:16:38.327Z,54.90
2018-04-14T12:17:42.370Z,54.15
2018-04-14T12:18:46.781Z,53.38
2018-04-14T12:20:17.425Z,53.22
2018-04-14T12:21:22.068Z,55.47
2018-04-14T12:22:25.999Z,51.25
2018-04-14T12:23:30.697Z,47.88
2018-04-14T12:24:34.644Z,50.80
2018-04-14T12:25:38.634Z,49.47
2018-04-14T12:26:43.483Z,47.67
2018-04-14T12:27:47.628Z,45.70
2018-04-14T12:28:51.704Z,44.50
2018-04-14T12:29:56.285Z,45.92
2018-04-14T12:31:00.999Z,46.65
2018-04-14T12:32:06.917Z,45.65
2018-04-14T12:33:11.040Z,46.10
2018-04-14T12:34:15.117Z,44.83
2018-04-14T12:35:19.111Z,43.55
2018-04-14T12:36:23.591Z,43.17
2018-04-14T12:37:27.672Z,41.35
2018-04-14T12:38:32.295Z,39.92
2018-04-14T12:39:36.433Z,41.78
2018-04-14T12:40:40.428Z,42.35
2018-04-14T12:41:44.533Z,43.47
2018-04-14T12:42:49.401Z,46.30
2018-04-14T12:43:55.813Z,47.63
2018-04-14T12:45:01.091Z,47.75
2018-04-14T12:46:11.443Z,47.95
2018-04-14T12:47:15.666Z,42.33
2018-04-14T12:48:24.535Z,42.00
2018-04-14T12:49:30.159Z,40.35
2018-04-14T12:50:39.051Z,40.45
2018-04-14T12:51:45.637Z,40.20
2018-04-14T12:52:49.884Z,39.92
2018-04-14T12:53:54.019Z,40.97
2018-04-14T12:54:58.670Z,40.03
2018-04-14T12:56:02.833Z,40.85
2018-04-14T12:57:07.062Z,41.72
2018-04-14T12:58:11.137Z,42.20
2018-04-14T12:59:15.196Z,45.22
2018-04-14T13:00:19.680Z,46.90
2018-04-14T13:01:23.870Z,45.38
2018-04-14T13:02:28.111Z,42.53
2018-04-14T13:03:32.289Z,41.15
2018-04-14T13:04:36.535Z,42.92
2018-04-14T13:07:10.793Z,42.33
2018-04-14T13:08:15.121Z,42.47
2018-04-14T13:09:19.284Z,40.72
2018-04-14T13:10:23.403Z,40.10
2018-04-14T13:11:27.640Z,42.38
2018-04-14T13:12:31.773Z,40.17
2018-04-14T13:13:38.699Z,41.80
2018-04-14T13:14:43.003Z,42.00
2018-04-14T13:15:47.083Z,41.65
2018-04-14T13:16:51.085Z,38.97
2018-04-14T13:17:55.012Z,42.50
2018-04-14T13:18:58.988Z,41.10
2018-04-14T13:20:03.387Z,41.28
2018-04-14T13:21:07.308Z,41.60
2018-04-14T13:22:11.237Z,41.60
2018-04-14T13:23:18.172Z,48.53
2018-04-14T13:24:23.760Z,57.10
2018-04-14T13:25:27.732Z,49.35
2018-04-14T13:26:32.040Z,49.92
2018-04-14T13:27:42.277Z,49.45
2018-04-14T13:28:46.168Z,50.53
2018-04-14T13:30:02.307Z,51.78
2018-04-14T13:31:08.911Z,49.03
2018-04-14T13:32:13.653Z,50.15
2018-04-14T13:33:18.717Z,50.90
2018-04-14T13:34:22.765Z,50.92
2018-04-14T13:35:28.933Z,50.65
2018-04-14T13:37:16.974Z,49.67
2018-04-14T13:38:36.170Z,51.53
2018-04-14T13:40:01.406Z,49.03
2018-04-14T13:41:13.361Z,48.57
2018-04-14T13:42:24.071Z,47.55
2018-04-14T13:43:59.114Z,47.88
2018-04-14T13:45:05.982Z,49.22
2018-04-14T13:46:31.104Z,49.45
2018-04-14T13:47:55.077Z,44.45
2018-04-14T13:49:07.478Z,46.30
2018-04-14T13:50:14.185Z,47.97
2018-04-14T13:51:21.783Z,44.95
2018-04-14T13:52:39.463Z,46.25
2018-04-14T13:53:58.415Z,45.47
2018-04-14T13:55:17.738Z,44.75
2018-04-14T13:56:35.863Z,43.38
2018-04-14T13:57:46.612Z,44.33
2018-04-14T13:59:00.198Z,43.92
2018-04-14T14:00:07.967Z,45.15
2018-04-14T14:01:17.262Z,44.50
2018-04-14T14:02:36.563Z,43.90
2018-04-14T14:03:48.217Z,43.33
2018-04-14T14:04:56.113Z,42.88
2018-04-14T14:06:07.382Z,43.80
2018-04-14T14:07:15.804Z,42.80
2018-04-14T14:08:37.864Z,42.95
2018-04-14T14:09:49.422Z,41.90
2018-04-14T14:11:09.877Z,44.80
2018-04-14T14:12:19.631Z,41.42
2018-04-14T14:13:32.421Z,41.08
2018-04-14T14:14:39.275Z,44.97
2018-04-14T14:15:44.245Z,44.05
2018-04-14T14:16:49.542Z,43.63